createdAt,value
2023-05-22T00:00:54.900Z,32.16
2023-05-22T00:01:54.926Z,32.14
2023-05-22T00:02:55.059Z,32.18
2023-05-22T00:03:54.936Z,32.14
2023-05-22T00:04:54.985Z,32.19
2023-05-22T00:05:54.941Z,32.15
2023-05-22T00:06:54.975Z,32.19
2023-05-22T00:07:54.973Z,32.12
2023-05-22T00:08:54.975Z,32.19
2023-05-22T00:09:54.995Z,32.26
2023-05-22T00:10:54.995Z,32.20
2023-05-22T00:11:55.022Z,32.22
2023-05-22T00:12:55.019Z,32.19
2023-05-22T00:13:55.022Z,32.22
2023-05-22T00:14:55.078Z,32.19
2023-05-22T00:15:55.089Z,32.17
2023-05-22T00:16:55.164Z,32.21
2023-05-22T00:17:55.091Z,32.23
2023-05-22T00:18:55.127Z,32.19
2023-05-22T00:19:55.131Z,32.24
2023-05-22T00:20:55.096Z,32.20
2023-05-22T00:21:55.141Z,32.23
2023-05-22T00:22:55.131Z,32.16
2023-05-22T00:23:55.123Z,32.22
2023-05-22T00:24:55.166Z,32.24
2023-05-22T00:25:55.140Z,32.22
2023-05-22T00:26:55.144Z,32.19
2023-05-22T00:27:55.190Z,32.21
2023-05-22T00:28:55.180Z,32.19
2023-05-22T00:29:55.203Z,32.24
2023-05-22T00:30:55.202Z,32.21
2023-05-22T00:31:55.238Z,32.19
2023-05-22T00:32:55.264Z,32.19
2023-05-22T00:33:55.296Z,32.18
2023-05-22T00:34:55.303Z,32.12
2023-05-22T00:35:55.324Z,32.14
2023-05-22T00:36:55.291Z,32.12
2023-05-22T00:37:55.353Z,32.10
2023-05-22T00:38:55.352Z,32.11
2023-05-22T00:39:55.372Z,32.13
2023-05-22T00:40:55.375Z,32.15
2023-05-22T00:41:55.437Z,32.21
2023-05-22T00:42:55.441Z,32.15
2023-05-22T00:43:55.458Z,32.18
2023-05-22T00:44:55.479Z,32.17
2023-05-22T00:45:55.518Z,32.19
2023-05-22T00:46:55.603Z,32.23
2023-05-22T00:47:55.577Z,32.21
2023-05-22T00:48:55.608Z,32.18
2023-05-22T00:49:55.554Z,32.15
2023-05-22T00:50:55.609Z,32.23
2023-05-22T00:51:55.643Z,32.24
2023-05-22T00:52:55.592Z,32.21
2023-05-22T00:53:55.604Z,32.21
2023-05-22T00:54:55.641Z,32.23
2023-05-22T00:55:55.632Z,32.20
2023-05-22T00:56:55.670Z,32.27
2023-05-22T00:57:55.661Z,32.24
2023-05-22T00:58:55.662Z,32.22
2023-05-22T00:59:55.672Z,32.31
2023-05-22T01:00:55.752Z,32.25
2023-05-22T01:01:55.773Z,32.21
2023-05-22T01:02:55.827Z,32.25
2023-05-22T01:03:55.885Z,32.26
2023-05-22T01:04:55.742Z,32.24
2023-05-22T01:05:55.778Z,32.22
2023-05-22T01:06:55.786Z,32.27
2023-05-22T01:07:55.801Z,32.26
2023-05-22T01:08:55.800Z,32.26
2023-05-22T01:09:55.817Z,32.26
2023-05-22T01:10:55.873Z,32.21
2023-05-22T01:11:55.849Z,32.29
2023-05-22T01:12:55.860Z,32.22
2023-05-22T01:13:55.869Z,32.22
2023-05-22T01:14:55.881Z,32.22
2023-05-22T01:15:55.943Z,32.29
2023-05-22T01:16:55.920Z,32.20
2023-05-22T01:17:56.019Z,32.22
2023-05-22T01:18:56.027Z,32.20
2023-05-22T01:19:55.980Z,32.21
2023-05-22T01:20:55.988Z,32.21
2023-05-22T01:21:56.043Z,32.19
2023-05-22T01:22:56.013Z,32.24
2023-05-22T01:23:56.014Z,32.18
2023-05-22T01:24:56.027Z,32.22
2023-05-22T01:25:56.056Z,32.19
2023-05-22T01:26:56.059Z,32.25
2023-05-22T01:27:56.071Z,32.21
2023-05-22T01:28:56.099Z,32.23
2023-05-22T01:29:56.110Z,32.25
2023-05-22T01:30:56.116Z,32.31
2023-05-22T01:31:56.147Z,32.25
2023-05-22T01:32:56.189Z,32.26
2023-05-22T01:33:56.382Z,32.26
2023-05-22T01:34:56.224Z,32.18
2023-05-22T01:35:56.241Z,32.20
2023-05-22T01:36:56.302Z,32.22
2023-05-22T01:37:56.262Z,32.25
2023-05-22T01:38:56.255Z,32.19
2023-05-22T01:39:56.363Z,32.24
2023-05-22T01:40:56.323Z,32.21
2023-05-22T01:41:56.325Z,32.22
2023-05-22T01:42:56.418Z,32.22
2023-05-22T01:43:56.847Z,32.27
2023-05-22T01:44:56.330Z,32.28
2023-05-22T01:45:56.439Z,32.22
2023-05-22T01:46:56.382Z,32.22
2023-05-22T01:47:56.389Z,32.25
2023-05-22T01:48:56.393Z,32.22
2023-05-22T01:49:56.418Z,32.28
2023-05-22T01:50:56.437Z,32.22
2023-05-22T01:51:56.454Z,32.26
2023-05-22T01:52:56.489Z,32.26
2023-05-22T01:53:56.627Z,32.27
2023-05-22T01:54:56.691Z,32.29
2023-05-22T01:55:56.657Z,32.29
2023-05-22T01:56:56.695Z,32.27
2023-05-22T01:57:56.622Z,32.23
2023-05-22T01:58:57.355Z,32.30
2023-05-22T01:59:56.665Z,32.23
2023-05-22T02:00:56.708Z,32.26
2023-05-22T02:01:56.663Z,32.23
2023-05-22T02:02:56.862Z,32.18
2023-05-22T02:03:56.708Z,32.24
2023-05-22T02:04:56.717Z,32.30
2023-05-22T02:05:56.740Z,32.30
2023-05-22T02:06:56.747Z,32.26
2023-05-22T02:07:56.779Z,32.33
2023-05-22T02:08:56.787Z,32.20
2023-05-22T02:09:56.823Z,32.30
2023-05-22T02:10:56.848Z,32.24
2023-05-22T02:11:56.856Z,32.23
2023-05-22T02:12:56.890Z,32.17
2023-05-22T02:13:56.910Z,32.22
2023-05-22T02:14:56.957Z,32.21
2023-05-22T02:15:56.997Z,32.26
2023-05-22T02:16:57.003Z,32.20
2023-05-22T02:17:57.077Z,32.28
2023-05-22T02:18:57.058Z,32.21
2023-05-22T02:19:57.046Z,32.24
2023-05-22T02:20:57.082Z,32.21
2023-05-22T02:21:57.099Z,32.17
2023-05-22T02:22:57.116Z,32.21
2023-05-22T02:23:57.124Z,32.23
2023-05-22T02:24:57.167Z,32.17
2023-05-22T02:25:57.160Z,32.17
2023-05-22T02:26:57.189Z,32.16
2023-05-22T02:27:57.208Z,32.24
2023-05-22T02:28:57.231Z,32.24
2023-05-22T02:29:57.260Z,32.23
2023-05-22T02:30:57.312Z,32.21
2023-05-22T02:31:57.317Z,32.21
2023-05-22T02:32:57.376Z,32.21
2023-05-22T02:33:57.348Z,32.20
2023-05-22T02:34:57.376Z,32.24
2023-05-22T02:35:57.408Z,32.19
2023-05-22T02:36:57.421Z,32.23
2023-05-22T02:37:57.460Z,32.19
2023-05-22T02:38:57.485Z,32.20
2023-05-22T02:39:57.475Z,32.14
2023-05-22T02:40:57.512Z,32.20
2023-05-22T02:41:57.527Z,32.21
2023-05-22T02:42:57.582Z,32.17
2023-05-22T02:43:57.611Z,32.25
2023-05-22T02:44:57.606Z,32.20
2023-05-22T02:45:57.629Z,32.21
2023-05-22T02:46:57.692Z,32.16
2023-05-22T02:47:57.685Z,32.17
2023-05-22T02:48:57.700Z,32.11
2023-05-22T02:49:57.699Z,32.08
2023-05-22T02:50:57.747Z,32.15
2023-05-22T02:51:57.759Z,32.18
2023-05-22T02:52:57.794Z,32.14
2023-05-22T02:53:57.831Z,32.14
2023-05-22T02:54:57.810Z,32.14
2023-05-22T02:55:57.834Z,32.14
2023-05-22T02:56:57.863Z,32.16
2023-05-22T02:57:57.892Z,32.18
2023-05-22T02:58:57.909Z,32.15
2023-05-22T02:59:57.956Z,32.17
2023-05-22T03:00:57.959Z,32.20
2023-05-22T03:01:58.063Z,32.08
2023-05-22T03:02:58.061Z,32.11
2023-05-22T03:03:58.186Z,32.14
2023-05-22T03:04:58.058Z,32.15
2023-05-22T03:05:58.089Z,32.07
2023-05-22T03:06:58.118Z,32.14
2023-05-22T03:07:58.161Z,32.08
2023-05-22T03:08:58.169Z,32.14
2023-05-22T03:09:58.199Z,32.08
2023-05-22T03:10:58.225Z,32.13
2023-05-22T03:11:58.244Z,32.13
2023-05-22T03:12:58.273Z,32.11
2023-05-22T03:13:58.289Z,32.10
2023-05-22T03:14:58.329Z,32.05
2023-05-22T03:15:58.361Z,32.14
2023-05-22T03:16:58.376Z,32.10
2023-05-22T03:17:58.420Z,32.14
2023-05-22T03:18:58.474Z,32.14
2023-05-22T03:19:58.443Z,32.11
2023-05-22T03:20:58.470Z,32.10
2023-05-22T03:21:58.512Z,32.13
2023-05-22T03:22:58.560Z,32.10
2023-05-22T03:23:58.561Z,32.11
2023-05-22T03:24:58.589Z,32.13
2023-05-22T03:25:58.610Z,32.13
2023-05-22T03:26:58.660Z,32.08
2023-05-22T03:27:58.667Z,32.09
2023-05-22T03:28:58.763Z,32.08
2023-05-22T03:29:58.745Z,32.15
2023-05-22T03:30:58.747Z,32.05
2023-05-22T03:31:58.767Z,32.18
2023-05-22T03:32:58.859Z,32.11
2023-05-22T03:33:58.884Z,32.05
2023-05-22T03:34:58.861Z,32.04
2023-05-22T03:35:58.882Z,32.12
2023-05-22T03:36:58.907Z,32.12
2023-05-22T03:37:58.947Z,32.10
2023-05-22T03:38:58.961Z,32.05
2023-05-22T03:39:58.995Z,32.14
2023-05-22T03:40:58.998Z,32.10
2023-05-22T03:41:59.024Z,32.07
2023-05-22T03:42:59.072Z,32.05
2023-05-22T03:43:59.092Z,32.08
2023-05-22T03:44:59.131Z,32.08
2023-05-22T03:45:59.249Z,32.14
2023-05-22T03:46:59.205Z,32.14
2023-05-22T03:47:59.234Z,32.00
2023-05-22T03:48:59.243Z,31.97
2023-05-22T03:49:59.255Z,32.04
2023-05-22T03:50:59.256Z,32.08
2023-05-22T03:51:59.237Z,32.02
2023-05-22T03:52:59.234Z,32.04
2023-05-22T03:53:59.218Z,32.01
2023-05-22T03:54:59.216Z,32.08
2023-05-22T03:55:59.216Z,32.01
2023-05-22T03:56:59.219Z,32.14
2023-05-22T03:57:59.199Z,32.08
2023-05-22T03:58:59.188Z,32.04
2023-05-22T03:59:59.177Z,32.02
2023-05-22T04:00:59.173Z,32.01
2023-05-22T04:01:59.178Z,32.01
2023-05-22T04:02:59.211Z,32.02
2023-05-22T04:03:59.161Z,31.99
2023-05-22T04:04:59.213Z,32.02
2023-05-22T04:05:59.217Z,32.03
2023-05-22T04:06:59.258Z,32.01
2023-05-22T04:07:59.268Z,31.97
2023-05-22T04:08:59.316Z,31.98
2023-05-22T04:09:59.336Z,32.00
2023-05-22T04:10:59.377Z,32.06
2023-05-22T04:11:59.409Z,32.07
2023-05-22T04:12:59.467Z,32.04
2023-05-22T04:13:59.484Z,32.04
2023-05-22T04:14:59.518Z,32.12
2023-05-22T04:15:59.564Z,32.08
2023-05-22T04:16:59.611Z,32.05
2023-05-22T04:17:59.635Z,32.01
2023-05-22T04:18:59.660Z,32.02
2023-05-22T04:19:59.664Z,31.98
2023-05-22T04:20:59.696Z,31.98
2023-05-22T04:21:59.741Z,31.96
2023-05-22T04:22:59.769Z,32.02
2023-05-22T04:23:59.787Z,31.97
2023-05-22T04:24:59.829Z,31.98
2023-05-22T04:25:59.846Z,32.04
2023-05-22T04:26:59.908Z,32.05
2023-05-22T04:27:59.947Z,31.97
2023-05-22T04:28:59.954Z,32.01
2023-05-22T04:30:00.023Z,31.97
2023-05-22T04:31:00.031Z,31.99
2023-05-22T04:32:00.039Z,31.97
2023-05-22T04:33:00.247Z,31.98
2023-05-22T04:34:00.186Z,31.94
2023-05-22T04:35:00.196Z,31.98
2023-05-22T04:36:00.202Z,32.03
2023-05-22T04:37:00.200Z,31.94
2023-05-22T04:38:00.238Z,31.91
2023-05-22T04:39:00.282Z,31.97
2023-05-22T04:40:00.307Z,31.91
2023-05-22T04:41:00.345Z,31.98
2023-05-22T04:42:00.382Z,31.90
2023-05-22T04:43:00.405Z,31.94
2023-05-22T04:44:00.442Z,31.99
2023-05-22T04:45:00.459Z,31.94
2023-05-22T04:46:00.512Z,31.99
2023-05-22T04:47:00.582Z,31.92
2023-05-22T04:48:00.600Z,31.97
2023-05-22T04:49:00.577Z,31.97
2023-05-22T04:50:00.593Z,31.92
2023-05-22T04:51:00.645Z,31.97
2023-05-22T04:52:00.669Z,31.94
2023-05-22T04:53:00.800Z,31.97
2023-05-22T04:54:00.909Z,31.97
2023-05-22T04:55:01.797Z,32.01
2023-05-22T04:56:00.858Z,31.98
2023-05-22T04:57:00.918Z,31.99
2023-05-22T04:58:00.936Z,31.95
2023-05-22T04:59:00.897Z,31.99
2023-05-22T05:00:00.925Z,31.98
2023-05-22T05:01:01.034Z,31.97
2023-05-22T05:02:01.074Z,32.04
2023-05-22T05:03:01.279Z,32.01
2023-05-22T05:04:01.278Z,32.04
2023-05-22T05:05:01.115Z,31.99
2023-05-22T05:06:01.153Z,32.02
2023-05-22T05:07:01.150Z,31.94
2023-05-22T05:08:01.184Z,32.01
2023-05-22T05:09:01.369Z,31.98
2023-05-22T05:10:01.239Z,32.02
2023-05-22T05:11:01.294Z,31.97
2023-05-22T05:12:01.293Z,31.97
2023-05-22T05:13:01.327Z,31.99
2023-05-22T05:14:01.388Z,31.99
2023-05-22T05:15:01.387Z,32.02
2023-05-22T05:16:01.497Z,31.98
2023-05-22T05:17:01.507Z,32.04
2023-05-22T05:18:01.557Z,32.04
2023-05-22T05:19:01.622Z,31.98
2023-05-22T05:20:01.540Z,32.01
2023-05-22T05:21:01.595Z,32.04
2023-05-22T05:22:01.649Z,32.01
2023-05-22T05:23:01.667Z,32.01
2023-05-22T05:24:01.694Z,32.05
2023-05-22T05:25:01.760Z,32.02
2023-05-22T05:26:01.754Z,32.04
2023-05-22T05:27:01.769Z,32.02
2023-05-22T05:28:01.797Z,32.07
2023-05-22T05:29:01.823Z,32.05
2023-05-22T05:30:01.895Z,32.11
2023-05-22T05:31:01.906Z,32.11
2023-05-22T05:32:01.925Z,32.11
2023-05-22T05:33:01.972Z,32.08
2023-05-22T05:34:01.994Z,32.15
2023-05-22T05:35:02.210Z,32.45
2023-05-22T05:36:02.020Z,32.65
2023-05-22T05:37:02.038Z,32.85
2023-05-22T05:38:02.081Z,33.11
2023-05-22T05:39:02.121Z,33.28
2023-05-22T05:40:02.172Z,33.90
2023-05-22T05:41:02.145Z,34.19
2023-05-22T05:42:02.232Z,34.33
2023-05-22T05:43:02.192Z,34.62
2023-05-22T05:44:02.158Z,34.79
2023-05-22T05:45:02.160Z,34.96
2023-05-22T05:46:02.273Z,35.00
2023-05-22T05:47:02.172Z,35.12
2023-05-22T05:48:02.343Z,35.06
2023-05-22T05:49:02.202Z,35.04
2023-05-22T05:50:02.151Z,35.21
2023-05-22T05:51:02.208Z,35.38
2023-05-22T05:52:02.370Z,35.75
2023-05-22T05:53:02.321Z,35.54
2023-05-22T05:54:02.294Z,35.72
2023-05-22T05:55:02.325Z,35.87
2023-05-22T05:56:03.172Z,36.01
2023-05-22T05:57:02.365Z,36.08
2023-05-22T05:58:02.449Z,36.10
2023-05-22T05:59:02.456Z,36.34
2023-05-22T06:00:02.396Z,36.19
2023-05-22T06:01:02.363Z,35.99
2023-05-22T06:02:02.355Z,35.83
2023-05-22T06:03:02.400Z,35.69
2023-05-22T06:04:02.401Z,35.67
2023-05-22T06:05:02.320Z,35.62
2023-05-22T06:06:02.282Z,35.55
2023-05-22T06:07:02.247Z,35.58
2023-05-22T06:08:02.242Z,35.60
2023-05-22T06:09:02.209Z,35.47
2023-05-22T06:10:02.227Z,35.47
2023-05-22T06:11:02.277Z,35.58
2023-05-22T06:12:02.197Z,35.65
2023-05-22T06:13:02.170Z,35.71
2023-05-22T06:14:02.153Z,35.73
2023-05-22T06:15:03.050Z,35.65
2023-05-22T06:16:05.714Z,35.56
2023-05-22T06:17:02.134Z,35.66
2023-05-22T06:18:02.131Z,35.89
2023-05-22T06:19:02.106Z,35.87
2023-05-22T06:20:02.115Z,36.10
2023-05-22T06:21:02.145Z,36.13
2023-05-22T06:22:02.012Z,36.21
2023-05-22T06:23:02.007Z,36.20
2023-05-22T06:24:01.991Z,36.22
2023-05-22T06:25:01.982Z,36.31
2023-05-22T06:26:01.927Z,36.36
2023-05-22T06:27:01.915Z,36.27
2023-05-22T06:28:01.905Z,36.33
2023-05-22T06:29:01.933Z,36.30
2023-05-22T06:30:03.069Z,36.31
2023-05-22T06:31:02.955Z,36.38
2023-05-22T06:32:02.107Z,36.38
2023-05-22T06:33:02.140Z,36.40
2023-05-22T06:34:02.271Z,36.49
2023-05-22T06:35:02.073Z,36.56
2023-05-22T06:36:02.055Z,36.51
2023-05-22T06:37:02.180Z,36.44
2023-05-22T06:38:02.027Z,36.43
2023-05-22T06:39:01.983Z,36.36
2023-05-22T06:40:01.982Z,36.42
2023-05-22T06:41:01.913Z,36.44
2023-05-22T06:42:01.887Z,36.39
2023-05-22T06:43:01.866Z,36.50
2023-05-22T06:44:01.890Z,36.42
2023-05-22T06:45:02.061Z,36.30
2023-05-22T06:46:02.096Z,36.01
2023-05-22T06:47:01.960Z,35.83
2023-05-22T06:48:02.058Z,35.92
2023-05-22T06:49:02.034Z,36.04
2023-05-22T06:50:02.156Z,36.04
2023-05-22T06:51:02.096Z,36.04
2023-05-22T06:52:03.907Z,36.19
2023-05-22T06:53:02.110Z,36.19
2023-05-22T06:54:02.082Z,35.93
2023-05-22T06:55:02.043Z,35.88
2023-05-22T06:56:02.013Z,35.95
2023-05-22T06:57:01.987Z,35.93
2023-05-22T06:58:01.947Z,35.99
2023-05-22T06:59:01.914Z,35.81
2023-05-22T07:00:01.909Z,35.90
2023-05-22T07:01:02.111Z,36.01
2023-05-22T07:02:01.820Z,36.07
2023-05-22T07:03:01.844Z,36.11
2023-05-22T07:04:01.777Z,36.06
2023-05-22T07:05:01.750Z,36.11
2023-05-22T07:06:01.748Z,35.96
2023-05-22T07:07:01.736Z,36.10
2023-05-22T07:08:01.831Z,36.16
2023-05-22T07:09:01.720Z,36.22
2023-05-22T07:10:01.751Z,36.24
2023-05-22T07:11:01.762Z,36.32
2023-05-22T07:12:01.801Z,36.33
2023-05-22T07:13:01.778Z,36.45
2023-05-22T07:14:01.764Z,36.54
2023-05-22T07:15:01.800Z,36.59
2023-05-22T07:16:01.776Z,36.64
2023-05-22T07:17:01.814Z,36.64
2023-05-22T07:18:01.857Z,36.75
2023-05-22T07:19:01.796Z,36.71
2023-05-22T07:20:01.783Z,36.64
2023-05-22T07:21:01.686Z,36.67
2023-05-22T07:22:01.736Z,36.69
2023-05-22T07:23:01.648Z,36.62
2023-05-22T07:24:01.646Z,36.65
2023-05-22T07:25:01.695Z,36.64
2023-05-22T07:26:01.577Z,36.61
2023-05-22T07:27:01.533Z,36.69
2023-05-22T07:28:01.542Z,36.55
2023-05-22T07:29:01.457Z,36.56
2023-05-22T07:30:01.473Z,36.66
2023-05-22T07:31:01.382Z,36.62
2023-05-22T07:32:01.408Z,36.60
2023-05-22T07:33:01.404Z,36.61
2023-05-22T07:34:01.331Z,36.65
2023-05-22T07:35:01.290Z,36.57
2023-05-22T07:36:02.011Z,36.49
2023-05-22T07:37:02.995Z,36.36
2023-05-22T07:38:01.223Z,35.95
2023-05-22T07:39:01.155Z,35.70
2023-05-22T07:40:01.069Z,35.52
2023-05-22T07:41:01.060Z,35.46
2023-05-22T07:42:01.846Z,35.64
2023-05-22T07:43:00.999Z,35.75
2023-05-22T07:44:00.958Z,35.74
2023-05-22T07:45:01.513Z,35.84
2023-05-22T07:46:01.080Z,35.83
2023-05-22T07:47:00.913Z,35.81
2023-05-22T07:48:02.679Z,35.84
2023-05-22T07:49:00.925Z,35.93
2023-05-22T07:50:00.779Z,36.11
2023-05-22T07:51:00.737Z,36.14
2023-05-22T07:52:00.696Z,36.22
2023-05-22T07:53:00.640Z,36.22
2023-05-22T07:54:00.703Z,36.21
2023-05-22T07:55:00.599Z,36.27
2023-05-22T07:56:00.530Z,36.29
2023-05-22T07:57:00.504Z,36.25
2023-05-22T07:58:00.507Z,36.20
2023-05-22T07:59:00.450Z,36.12
2023-05-22T08:00:00.517Z,36.06
2023-05-22T08:01:00.475Z,36.00
2023-05-22T08:02:00.458Z,35.85
2023-05-22T08:03:00.495Z,35.79
2023-05-22T08:04:00.663Z,35.57
2023-05-22T08:05:00.456Z,35.54
2023-05-22T08:06:00.360Z,35.50
2023-05-22T08:07:00.269Z,35.54
2023-05-22T08:08:00.257Z,35.36
2023-05-22T08:09:00.217Z,35.24
2023-05-22T08:10:00.221Z,35.26
2023-05-22T08:11:03.779Z,35.19
2023-05-22T08:12:00.176Z,35.23
2023-05-22T08:13:00.099Z,35.06
2023-05-22T08:14:00.102Z,34.84
2023-05-22T08:15:00.018Z,34.93
2023-05-22T08:16:01.356Z,34.71
2023-05-22T08:16:59.946Z,34.62
2023-05-22T08:17:59.921Z,34.49
2023-05-22T08:18:59.897Z,34.31
2023-05-22T08:19:59.900Z,34.26
2023-05-22T08:20:59.795Z,34.28
2023-05-22T08:21:59.696Z,34.52
2023-05-22T08:22:59.690Z,34.53
2023-05-22T08:23:59.630Z,34.38
2023-05-22T08:24:59.566Z,34.26
2023-05-22T08:25:59.536Z,34.24
2023-05-22T08:26:59.498Z,34.16
2023-05-22T08:27:59.480Z,34.15
2023-05-22T08:28:59.416Z,34.27
2023-05-22T08:29:59.368Z,34.22
2023-05-22T08:30:59.332Z,34.06
2023-05-22T08:31:59.391Z,33.93
2023-05-22T08:32:59.411Z,33.64
2023-05-22T08:33:59.334Z,33.35
2023-05-22T08:34:59.349Z,33.13
2023-05-22T08:35:59.310Z,32.99
2023-05-22T08:36:59.280Z,32.85
2023-05-22T08:37:59.307Z,32.58
2023-05-22T08:38:59.284Z,32.48
2023-05-22T08:39:59.178Z,32.12
2023-05-22T08:40:59.144Z,32.02
2023-05-22T08:41:59.144Z,31.79
2023-05-22T08:42:59.079Z,31.65
2023-05-22T08:43:59.188Z,31.59
2023-05-22T08:44:59.042Z,31.52
2023-05-22T08:45:59.048Z,31.36
2023-05-22T08:46:59.055Z,31.31
2023-05-22T08:47:59.032Z,31.25
2023-05-22T08:48:58.956Z,31.17
2023-05-22T08:49:58.925Z,31.03
2023-05-22T08:50:58.930Z,31.03
2023-05-22T08:51:58.912Z,30.97
2023-05-22T08:52:59.447Z,30.93
2023-05-22T08:53:58.862Z,30.72
2023-05-22T08:54:58.817Z,30.77
2023-05-22T08:55:58.829Z,30.73
2023-05-22T08:56:58.768Z,30.69
2023-05-22T08:57:58.775Z,30.73
2023-05-22T08:58:58.777Z,30.67
2023-05-22T08:59:59.081Z,30.57
2023-05-22T09:00:58.763Z,30.64
2023-05-22T09:01:58.747Z,30.50
2023-05-22T09:02:58.853Z,30.49
2023-05-22T09:03:58.752Z,30.51
2023-05-22T09:04:58.697Z,30.41
2023-05-22T09:05:58.661Z,30.46
2023-05-22T09:06:58.732Z,30.38
2023-05-22T09:08:08.445Z,30.47
2023-05-22T09:08:59.850Z,30.56
2023-05-22T09:09:58.596Z,30.48
2023-05-22T09:10:58.660Z,30.42
2023-05-22T09:11:58.593Z,30.45
2023-05-22T09:12:58.600Z,30.43
2023-05-22T09:13:59.179Z,30.40
2023-05-22T09:14:58.437Z,30.44
2023-05-22T09:15:58.411Z,30.38
2023-05-22T09:16:58.393Z,30.42
2023-05-22T09:17:58.362Z,30.34
2023-05-22T09:18:58.321Z,30.32
2023-05-22T09:19:58.312Z,30.35
2023-05-22T09:20:58.174Z,30.29
2023-05-22T09:21:58.143Z,30.25
2023-05-22T09:22:58.158Z,30.20
2023-05-22T09:23:58.095Z,30.26
2023-05-22T09:24:58.617Z,30.24
2023-05-22T09:25:58.028Z,30.25
2023-05-22T09:26:58.031Z,30.21
2023-05-22T09:27:57.980Z,30.21
2023-05-22T09:28:57.970Z,30.22
2023-05-22T09:29:57.913Z,30.19
2023-05-22T09:30:57.925Z,30.25
2023-05-22T09:31:57.904Z,30.19
2023-05-22T09:32:57.850Z,30.15
2023-05-22T09:33:57.835Z,30.15
2023-05-22T09:34:57.766Z,30.15
2023-05-22T09:35:57.845Z,30.23
2023-05-22T09:36:57.711Z,30.39
2023-05-22T09:37:57.733Z,30.26
2023-05-22T09:38:57.644Z,30.23
2023-05-22T09:39:57.609Z,30.25
2023-05-22T09:40:57.636Z,31.63
2023-05-22T09:41:57.606Z,30.78
2023-05-22T09:42:58.071Z,30.91
2023-05-22T09:43:58.337Z,30.55
2023-05-22T09:44:57.622Z,29.35
2023-05-22T09:45:57.607Z,30.91
2023-05-22T09:46:57.569Z,31.31
2023-05-22T09:47:57.649Z,31.89
2023-05-22T09:48:57.514Z,30.04
2023-05-22T09:49:57.644Z,29.05
2023-05-22T09:50:57.517Z,29.91
2023-05-22T09:51:57.650Z,28.68
2023-05-22T09:52:57.551Z,28.51
2023-05-22T09:53:58.052Z,28.83
2023-05-22T09:54:57.584Z,29.24
2023-05-22T09:55:57.572Z,29.73
2023-05-22T09:56:57.690Z,29.41
2023-05-22T09:57:57.551Z,28.54
2023-05-22T09:58:57.516Z,28.61
2023-05-22T09:59:57.516Z,29.02
2023-05-22T10:00:57.481Z,28.11
2023-05-22T10:01:57.637Z,27.66
2023-05-22T10:02:57.484Z,28.18
2023-05-22T10:03:57.421Z,27.19
2023-05-22T10:04:57.494Z,27.68
2023-05-22T10:05:57.331Z,28.63
2023-05-22T10:06:57.307Z,28.44
2023-05-22T10:07:57.264Z,27.59
2023-05-22T10:08:57.234Z,27.71
2023-05-22T10:09:58.088Z,26.98
2023-05-22T10:10:57.293Z,26.98
2023-05-22T10:11:57.155Z,27.72
2023-05-22T10:12:57.227Z,27.88
2023-05-22T10:13:57.269Z,27.99
2023-05-22T10:14:57.200Z,27.52
2023-05-22T10:15:57.032Z,27.56
2023-05-22T10:16:57.101Z,27.51
2023-05-22T10:17:57.102Z,27.34
2023-05-22T10:18:57.095Z,26.94
2023-05-22T10:19:57.078Z,25.62
2023-05-22T10:20:56.969Z,26.02
2023-05-22T10:21:57.024Z,26.82
2023-05-22T10:22:56.927Z,27.51
2023-05-22T10:23:56.899Z,27.59
2023-05-22T10:24:56.906Z,27.60
2023-05-22T10:25:56.908Z,27.64
2023-05-22T10:26:57.150Z,27.82
2023-05-22T10:27:57.102Z,27.89
2023-05-22T10:28:57.778Z,28.01
2023-05-22T10:29:57.009Z,28.01
2023-05-22T10:30:57.070Z,28.09
2023-05-22T10:31:57.232Z,28.24
2023-05-22T10:32:57.265Z,28.56
2023-05-22T10:33:57.129Z,28.62
2023-05-22T10:34:58.073Z,28.69
2023-05-22T10:35:57.226Z,29.04
2023-05-22T10:37:03.142Z,28.08
2023-05-22T10:37:58.081Z,27.86
2023-05-22T10:38:57.227Z,28.31
2023-05-22T10:39:57.211Z,28.00
2023-05-22T10:40:57.193Z,28.27
2023-05-22T10:41:57.002Z,29.17
2023-05-22T10:42:56.991Z,29.09
2023-05-22T10:43:57.020Z,29.30
2023-05-22T10:44:57.137Z,29.71
2023-05-22T10:45:57.234Z,29.81
2023-05-22T10:46:56.954Z,29.86
2023-05-22T10:47:56.948Z,29.80
2023-05-22T10:48:56.844Z,29.73
2023-05-22T10:49:57.578Z,30.06
2023-05-22T10:50:59.260Z,30.81
2023-05-22T10:51:56.675Z,30.30
2023-05-22T10:52:56.647Z,30.00
2023-05-22T10:53:56.565Z,29.90
2023-05-22T10:54:56.519Z,30.09
2023-05-22T10:55:56.491Z,30.14
2023-05-22T10:56:56.520Z,30.10
2023-05-22T10:57:56.411Z,29.96
2023-05-22T10:58:56.305Z,30.17
2023-05-22T10:59:56.304Z,30.84
2023-05-22T11:00:56.296Z,30.63
2023-05-22T11:01:56.209Z,30.49
2023-05-22T11:02:58.578Z,30.59
2023-05-22T11:03:57.236Z,30.66
2023-05-22T11:04:55.992Z,30.62
2023-05-22T11:05:55.919Z,30.48
2023-05-22T11:06:55.914Z,30.61
2023-05-22T11:07:55.818Z,31.18
2023-05-22T11:08:55.786Z,31.14
2023-05-22T11:09:55.713Z,31.16
2023-05-22T11:10:55.660Z,31.49
2023-05-22T11:11:55.653Z,31.69
2023-05-22T11:12:55.555Z,31.43
2023-05-22T11:13:55.476Z,30.42
2023-05-22T11:14:55.517Z,31.14
2023-05-22T11:15:55.387Z,31.45
2023-05-22T11:16:55.413Z,29.80
2023-05-22T11:17:55.510Z,29.67
2023-05-22T11:18:55.264Z,30.43
2023-05-22T11:19:55.348Z,30.50
2023-05-22T11:20:55.129Z,29.51
2023-05-22T11:21:55.058Z,29.33
2023-05-22T11:22:55.043Z,29.69
2023-05-22T11:23:54.953Z,28.01
2023-05-22T11:24:54.915Z,27.82
2023-05-22T11:25:54.879Z,28.63
2023-05-22T11:26:54.828Z,28.90
2023-05-22T11:27:54.834Z,29.07
2023-05-22T11:28:54.793Z,28.76
2023-05-22T11:29:54.703Z,29.07
2023-05-22T11:30:54.661Z,26.18
2023-05-22T11:31:54.597Z,28.04
2023-05-22T11:32:54.640Z,27.76
2023-05-22T11:33:54.566Z,27.16
2023-05-22T11:34:54.555Z,26.95
2023-05-22T11:35:54.502Z,26.51
2023-05-22T11:36:54.520Z,27.47
2023-05-22T11:37:54.466Z,28.27
2023-05-22T11:38:54.439Z,28.37
2023-05-22T11:39:54.410Z,28.38
2023-05-22T11:40:54.397Z,28.43
2023-05-22T11:41:54.342Z,28.39
2023-05-22T11:42:54.483Z,28.42
2023-05-22T11:43:54.270Z,28.69
2023-05-22T11:44:54.213Z,28.59
2023-05-22T11:45:54.180Z,28.58
2023-05-22T11:46:54.240Z,28.55
2023-05-22T11:47:54.234Z,28.52
2023-05-22T11:48:54.329Z,28.59
2023-05-22T11:49:54.222Z,28.61
2023-05-22T11:50:54.279Z,28.61
2023-05-22T11:51:54.294Z,28.62
2023-05-22T11:52:54.320Z,28.60
2023-05-22T11:53:54.330Z,28.64
2023-05-22T11:54:54.361Z,28.63
2023-05-22T11:55:54.390Z,28.70
2023-05-22T11:56:54.431Z,28.71
2023-05-22T11:57:54.466Z,28.73
2023-05-22T11:58:54.501Z,28.66
2023-05-22T11:59:54.523Z,28.68
2023-05-22T12:00:54.572Z,28.71
2023-05-22T12:01:54.575Z,28.68
2023-05-22T12:02:54.676Z,28.68
2023-05-22T12:03:54.705Z,28.71
2023-05-22T12:04:54.727Z,28.70
2023-05-22T12:05:54.709Z,28.66
2023-05-22T12:06:54.944Z,28.64
2023-05-22T12:07:54.721Z,28.60
2023-05-22T12:08:54.750Z,28.63
2023-05-22T12:09:54.774Z,28.66
2023-05-22T12:10:54.822Z,28.60
2023-05-22T12:11:54.834Z,28.64
2023-05-22T12:12:54.873Z,28.63
2023-05-22T12:13:54.905Z,28.66
2023-05-22T12:14:54.924Z,28.68
2023-05-22T12:15:54.975Z,28.63
2023-05-22T12:16:55.036Z,28.64
2023-05-22T12:17:55.069Z,28.67
2023-05-22T12:18:55.088Z,28.68
2023-05-22T12:19:55.076Z,28.73
2023-05-22T12:20:55.215Z,28.68
2023-05-22T12:21:55.143Z,28.72
2023-05-22T12:22:55.183Z,28.72
2023-05-22T12:23:55.195Z,28.72
2023-05-22T12:24:55.248Z,28.68
2023-05-22T12:25:55.239Z,28.68
2023-05-22T12:26:55.277Z,28.65
2023-05-22T12:27:55.321Z,28.64
2023-05-22T12:28:55.350Z,28.67
2023-05-22T12:29:55.399Z,28.60
2023-05-22T12:30:55.417Z,28.66
2023-05-22T12:31:55.489Z,28.62
2023-05-22T12:32:55.564Z,28.63
2023-05-22T12:33:55.530Z,28.65
2023-05-22T12:34:55.560Z,28.65
2023-05-22T12:35:55.574Z,28.58
2023-05-22T12:36:55.635Z,28.56
2023-05-22T12:37:55.664Z,28.60
2023-05-22T12:38:55.687Z,28.61
2023-05-22T12:39:55.737Z,28.59
2023-05-22T12:40:55.759Z,28.67
2023-05-22T12:41:55.783Z,28.58
2023-05-22T12:42:55.816Z,28.57
2023-05-22T12:43:55.849Z,28.53
2023-05-22T12:44:55.859Z,28.53
2023-05-22T12:45:55.893Z,28.51
2023-05-22T12:46:55.893Z,28.49
2023-05-22T12:47:55.989Z,28.56
2023-05-22T12:48:55.989Z,28.50
2023-05-22T12:49:55.978Z,28.50
2023-05-22T12:50:56.006Z,28.54
2023-05-22T12:51:56.040Z,28.57
2023-05-22T12:52:56.066Z,28.52